Lake Dynasty — 3FZB2 — position and weather

sailwx.info

Track history (hours):
 
Tides and Currents Weather Stations Pressure Air Temp Water Temp Dewpoint Dewpoint Depression Visibility Wind Speed Wind Dir Waves Ship Positions

Lake Dynasty

Last reported at 2016-Aug-02 16:13 UTC. Time now 2016-Aug-31 14:16 UTC.
Position N 02°34' E 101°30'.
Warning: this ship's position is 28 days out of date.

Length 182 m; draft 13 m.

Type: Cargo ship. MMSI: 370957000.

Date/timePositionNaut miles runAvg speedWind from/ knotsBaromVisibWave heightAir tempDewpointWater temp
2016-Aug-02 16:13N 02°34' E 101°30'4511.4
2016-Aug-02 12:16N 02°06' E 102°06'710.0
2016-Aug-02 11:32N 02°00' E 102°11'1010.2
2016-Aug-02 10:33N 01°55' E 102°19'1110.9
2016-Aug-02 09:33N 01°51' E 102°29'1211.8
2016-Aug-02 08:33N 01°46' E 102°40'7410.5
2016-Aug-02 01:32N 01°08' E 103°44'9 9.3
2016-Aug-02 00:33N 01°12' E 103°52'7 6.8
2016-Aug-01 23:33N 01°17' E 103°57'1 0.8
2016-Aug-01 22:31N 01°17' E 103°58'0 0.0
2016-Aug-01 21:31N 01°17' E 103°58'0 0.1
2016-Aug-01 20:31N 01°17' E 103°58'0 0.1
2016-Aug-01 19:31N 01°17' E 103°58'0 0.0
2016-Aug-01 18:31N 01°17' E 103°58'0 0.0
2016-Aug-01 17:31N 01°17' E 103°58'0 0.1
2016-Aug-01 16:31N 01°17' E 103°58'0 0.0
2016-Aug-01 15:13N 01°17' E 103°58'0 0.0
2016-Aug-01 14:31N 01°17' E 103°58'0 0.2
2016-Aug-01 13:31N 01°17' E 103°57'1 1.5
2016-Aug-01 12:33N 01°16' E 103°57'5 5.2
2016-Aug-01 11:33N 01°16' E 104°03'  
2016-Jul-26 14:22N 22°41' E 119°53'4511.8
2016-Jul-26 10:33N 23°26' E 119°55'2210.8
2016-Jul-26 08:33N 23°48' E 119°57'1310.6
2016-Jul-26 07:19N 24°00' E 120°03'9 9.7
2016-Jul-26 06:25N 24°08' E 120°06'10 9.9
2016-Jul-26 05:26N 24°17' E 120°10'  
2016-Jul-23 20:33N 33°46' E 123°24'2410.5
2016-Jul-23 18:18N 34°07' E 123°10'  
Track history (hours):
 
Tides and Currents Weather Stations Pressure Air Temp Water Temp Dewpoint Dewpoint Depression Visibility Wind Speed Wind Dir Waves Ship Positions

Lake Dynasty

Last reported at 2016-Aug-02 16:13 UTC. Time now 2016-Aug-31 14:16 UTC.
Position N 02°34' E 101°30'.
Warning: this ship's position is 28 days out of date.

Length 182 m; draft 13 m.

Type: Cargo ship. MMSI: 370957000.

Date/timePositionNaut miles runAvg speedWind from/ knotsBaromVisibWave heightAir tempDewpointWater temp
2016-Aug-02 16:13N 02°34' E 101°30'4511.4
2016-Aug-02 12:16N 02°06' E 102°06'710.0
2016-Aug-02 11:32N 02°00' E 102°11'1010.2
2016-Aug-02 10:33N 01°55' E 102°19'1110.9
2016-Aug-02 09:33N 01°51' E 102°29'1211.8
2016-Aug-02 08:33N 01°46' E 102°40'7410.5
2016-Aug-02 01:32N 01°08' E 103°44'9 9.3
2016-Aug-02 00:33N 01°12' E 103°52'7 6.8
2016-Aug-01 23:33N 01°17' E 103°57'1 0.8
2016-Aug-01 22:31N 01°17' E 103°58'0 0.0
2016-Aug-01 21:31N 01°17' E 103°58'0 0.1
2016-Aug-01 20:31N 01°17' E 103°58'0 0.1
2016-Aug-01 19:31N 01°17' E 103°58'0 0.0
2016-Aug-01 18:31N 01°17' E 103°58'0 0.0
2016-Aug-01 17:31N 01°17' E 103°58'0 0.1
2016-Aug-01 16:31N 01°17' E 103°58'0 0.0
2016-Aug-01 15:13N 01°17' E 103°58'0 0.0
2016-Aug-01 14:31N 01°17' E 103°58'0 0.2
2016-Aug-01 13:31N 01°17' E 103°57'1 1.5
2016-Aug-01 12:33N 01°16' E 103°57'5 5.2
2016-Aug-01 11:33N 01°16' E 104°03'  
2016-Jul-26 14:22N 22°41' E 119°53'4511.8
2016-Jul-26 10:33N 23°26' E 119°55'2210.8
2016-Jul-26 08:33N 23°48' E 119°57'1310.6
2016-Jul-26 07:19N 24°00' E 120°03'9 9.7
2016-Jul-26 06:25N 24°08' E 120°06'10 9.9
2016-Jul-26 05:26N 24°17' E 120°10'  
2016-Jul-23 20:33N 33°46' E 123°24'2410.5
2016-Jul-23 18:18N 34°07' E 123°10'  

Dump ship's entire track history